Florida AWOS List, Phone Numbers

USA |  
| Search AWOS

Rocky Mountain States: Montana | Wyoming | Colorado | New Mexico

Complete weather reports: Florida

Legend: KFNL = METAR available Follow your local AWOS on AV Mobile = METAR available on AV Mobile
Station Florida Location Frequency Phone
KAQQICAO ID KAQQ Apalachicola, Apalachicola
KAAFFAA ID AAF, ASOS, KAAF 302153Z AUTO 16010KT 10SM CLR 27/23 A3005 Follow KAAF on AV Mobile APALACHICOLA MUNICIPAL AIRPORT 119.925 850-653-8271
KNAEICAO ID KNAE Astor, Bombing Range Detachment Astor
KAVOFAA ID AVO, AWOS-3 AVON PARK 118.725 863-453-4223
KAGRFAA ID AGR Avon Park Gunnery Range
KBOWFAA ID BOW, AWOS-3, KBOW 302215Z AUTO 13011G16KT 10SM BKN060 BKN070 BKN080 32/17 A3004 RMK AO2 FZRANO Follow KBOW on AV Mobile Bartow Municipal 123.775 863-533-9004
F95FAA ID F95, AWOS-AV, KGAF 302230Z AUTO 08006G13KT 10SM CLR 17/M04 A2994 RMK AO2 Follow  on AV Mobile BLOUNTSTOWN 119.350 850-674-1347
KBCTFAA ID BCT, AWOS-3, KBCT 302147Z 12012G20KT 10SM SCT021 28/22 A3008 Follow KBCT on AV Mobile Boca Raton, Boca Raton Airport 121.125 561-391-2696
K1J0FAA ID 1J0, K1J0 302058Z AUTO 18012G18KT 10SM BKN085 29/21 A3001 RMK AO2 SLP121 T02940206 58010 Follow K1J0 on AV Mobile TRI COUNTY AIRPORT
KBKVFAA ID BKV, ASOS, KBKV 302153Z 16009KT 10SM CLR 33/17 A3002 RMK AO2 SLP163 T03280172 Follow KBKV on AV Mobile BROOKSVILLE HERNANDO CO AIRPORT 134.725 352-799-5881
K1J4ICAO ID K1J4 Cape San Blas Coast Guard Station
KNZCICAO ID KNZC Cecil, Naval Air Station
KCLWFAA ID CLW, AWOS-3P, KCLW 302215Z AUTO 23005KT 10SM CLR 29/21 A3001 RMK AO2 Follow KCLW on AV Mobile CLEARWATER 119.225 727-449-2184
2ISFAA ID 2IS, AWOS-3, KGAF 302230Z AUTO 08006G13KT 10SM CLR 17/M04 A2994 RMK AO2 Follow  on AV Mobile CLEWISTON 124.175 863-983-7020
KX53ICAO ID KX53 Clewiston
KCOFFAA ID COF, KCOF 302158Z AUTO 14018KT 10SM CLR 27/22 A3008 RMK AO2 SLP190 T02730221 $ Follow KCOF on AV Mobile Cocoa / Patrick Air Force Base
KXMRFAA ID XMR, KXMR 302158Z AUTO 14018G22KT 10SM CLR 29/21 A3008 RMK AO2 PK WND 14026/10 SLPNO T02880207 $ Follow KXMR on AV Mobile Cocoa Beach, Cape Canaveral Air Force Station Skid Strip
KCEWFAA ID CEW, ASOS, KCEW 302153Z AUTO 16010G16KT 10SM BKN018 OVC025 26/22 A3001 Follow KCEW on AV Mobile CRESTVIEW SIKES AIRPORT 119.275 850-682-1237
KEGIFAA ID EGI, KEGI 302158Z AUTO 15015G20KT 10SM BKN014 25/22 A2999 RMK AO2 SLP157 T02540217 $ Follow KEGI on AV Mobile Duke Field / Eglin Auxiliary
KCTYFAA ID CTY, KCTY 302215Z AUTO 21007KT 10SM CLR 31/19 A3003 RMK AO2 PWINO Follow KCTY on AV Mobile CROSS CITY AIRPORT
KCGCFAA ID CGC, AWOS-3, KCGC 302215Z AUTO 30005KT 10SM OVC070 31/21 A3002 RMK AO2 Follow KCGC on AV Mobile CRYSTAL RIVER 118.325 352-563-6600
KDABFAA ID DAB, ASOS, KDAB 302153Z 11009G17KT 10SM SCT025 BKN250 27/22 A3008 Follow KDAB on AV Mobile DAYTONA BEACH INTERNATIONAL 386-253-7469
54JFAA ID 54J, AWOS-3P, KGAF 302230Z AUTO 08006G13KT 10SM CLR 17/M04 A2994 RMK AO2 Follow  on AV Mobile DEFUNIAK SPRINGS 118.725 850-892-0147
KDEDFAA ID DED, AWOS-3, KDED 302215Z AUTO 12016KT 10SM SCT035 29/20 A3007 RMK AO2 Follow KDED on AV Mobile DELAND 119.575 386-740-5811
KDTSFAA ID DTS, ASOS, KDTS 302153Z AUTO 13012KT 8SM OVC012 26/26 A3000 RMK AO2 SLP157 T02610256 TSNO Follow KDTS on AV Mobile DESTIN-FT WALTON BEACH AIRPORT 133.925 850-654-7128
KX91ICAO ID KX91 Egmont Key Coast Guard Station
KFHBFAA ID FHB, AWOS-3, KFHB 302155Z AUTO 14015G22KT 10SM CLR 28/22 A3008 RMK AO1 Follow KFHB on AV Mobile FERNANDINA BEACH 118.075 904-277-7323
KFXEFAA ID FXE, ASOS, KFXE 302153Z 11015G22KT 10SM FEW023 SCT027 SCT033 28/20 A3007 Follow KFXE on AV Mobile FORT LAUDERDALE EXECUTIVE 954-772-2537
KFLLFAA ID FLL, ASOS, KFLL 302153Z 11017KT 10SM SCT024 SCT250 28/22 A3006 Follow KFLL on AV Mobile FORT LAUDERDALE/HOLLYWOOD 954-359-7857
KFMYFAA ID FMY, ASOS, KFMY 302153Z 11011G20KT 10SM CLR 33/19 A2999 RMK AO2 SLP158 T03280189 Follow KFMY on AV Mobile FORT MYERS PAGE FIELD 239-936-2318
KRSWFAA ID RSW, ASOS, KRSW 302153Z 13014G19KT 10SM FEW055 32/18 A3000 Follow KRSW on AV Mobile FORT MYERS SW FL INTERNATIONAL AIRPORT 239-561-0966
KX82ICAO ID KX82 Fort Pierce Coast Guard Station
KFPRFAA ID FPR, ASOS, KFPR 302153Z 13020G25KT 10SM FEW025 28/21 A3008 Follow KFPR on AV Mobile FORT PIERCE ST LUCIE 772-489-4281
KX86ICAO ID KX86 Fowey Rocks Coast Guard Station
KX89ICAO ID KX89 Ft. Myers Beach Coast Guard Station
KGNVFAA ID GNV, ASOS, KGNV 302153Z 19011KT 10SM SCT065 SCT080 32/16 A3003 Follow KGNV on AV Mobile GAINESVILLE REGIONAL AIRPORT 352-335-8672
KHWOFAA ID HWO, ASOS, KHWO 302153Z 10016G26KT 10SM SCT024 SCT036 BKN043 28/21 A3008 RMK AO2 PK WND 09026/2144 SLP186 T02830211 Follow KHWO on AV Mobile HOLLYWOOD NORTH PERRY AIRPORT 954-983-5904
X51FAA ID X51, AWOS-3, KGAF 302230Z AUTO 08006G13KT 10SM CLR 17/M04 A2994 RMK AO2 Follow  on AV Mobile HOMESTEAD 118.375 (305) 247-2791
KHSTFAA ID HST, KHST 302203Z AUTO 09010G15KT 10SM SCT022 BKN030 BKN100 26/25 A3005 RMK AO2 SLP179 Follow KHST on AV Mobile Homestead Air Force Base
KIMMFAA ID IMM, AWOS-3, KIMM 302215Z AUTO 11011G17KT 10SM CLR 30/19 A3001 RMK AO2 Follow KIMM on AV Mobile IMMOKALEE 118.525 239-657-2038
KINFFAA ID INF, AWOS-3, KINF 302215Z AUTO 11006KT 10SM SCT075 SCT085 32/20 A3003 RMK AO2 Follow KINF on AV Mobile INVERNESS 119.975 352-341-0264
KX84ICAO ID KX84 Islamorada Coast Guard Station
KHEGFAA ID HEG, AWOS-3 JACKSONVILLE 119.275 904-695-0334
KCRGFAA ID CRG, ASOS, KCRG 302153Z 14015G26KT 10SM FEW023 26/21 A3008 RMK AO2 PK WND 13026/2145 SLP187 T02610206 $ Follow KCRG on AV Mobile JACKSONVILLE CRAIG MUN 904-646-4670
KJAXFAA ID JAX, ASOS, KJAX 302156Z 13018G24KT 10SM FEW050 FEW120 BKN250 28/21 A3006 Follow KJAX on AV Mobile JACKSONVILLE INTERNATIONAL 904-741-4304
KNIPFAA ID NIP, KNIP 302153Z 11019G23KT 10SM FEW027 SCT150 SCT300 28/22 A3007 RMK AO2 SLP178 T02830217 Follow KNIP on AV Mobile JACKSONVILLE NAVAL AIR STN
KVQQFAA ID VQQ, AWOS-3, KVQQ 302150Z 13006KT 10SM SCT080 29/21 A3005 Follow KVQQ on AV Mobile Jacksonville, Cecil Field Airport 125.275 904-778-6934
KNENFAA ID NEN NOLF WHITEHOUSE FIELD, FL
KX80ICAO ID KX80 Jupiter Inlet Coast Guard Station
KEYWFAA ID EYW, ASOS, KEYW 302153Z 10018G25KT 10SM SCT019 28/23 A2999 Follow KEYW on AV Mobile KEY WEST INTERNATIONAL AIRPORT 119.65 305-292-4046
KNQXFAA ID NQX, KNQX 302153Z 10020KT 10SM SCT020 SCT024 SCT250 28/23 A2999 RMK AO2 PK WND 10028/2122 SLP153 T02780228 $ Follow KNQX on AV Mobile KEY WEST NAVAL AIR STATION
K42JFAA ID 42J, AWOS-3, K42J 302215Z AUTO 13005KT 10SM FEW060 FEW070 32/16 A3004 RMK AO1 TSNO Follow K42J on AV Mobile KEYSTONE HEIGHTS 124.275 352-473-8273
KLCQFAA ID LCQ, AWOS-3, KLCQ 302155Z AUTO 14007KT 10SM CLR 31/16 A3003 RMK AO2 Follow KLCQ on AV Mobile LAKE CITY 120.675 386-754-9366
X07FAA ID X07, AWOS-3, KGAF 302230Z AUTO 08006G13KT 10SM CLR 17/M04 A2994 RMK AO2 Follow  on AV Mobile LAKE WALES 124.225 863-678-1334
KX81ICAO ID KX81 Lake Worth Inlet
KLALFAA ID LAL, AWOS-3PT, KLAL 302150Z 15010G16KT 10SM SCT060 33/17 A3003 Follow KLAL on AV Mobile Lakeland Regional 118.025 863-834-2030
KLEEFAA ID LEE, ASOS, KLEE 302153Z 12012KT 10SM FEW060 32/21 A3005 RMK AO2 SLP175 T03170206 Follow KLEE on AV Mobile LEESBURG REGIONAL AIRPORT 134.325 352-787-1565
K24JFAA ID 24J, AWOS-3, K24J 302215Z AUTO 25009KT 220V280 10SM OVC065 32/19 A3004 RMK A01 Follow K24J on AV Mobile LIVE OAK 118.225 386-362-1731
KX88ICAO ID KX88 Marathon Coast Guard Station
KMTHFAA ID MTH, ASOS, KMTH 302153Z AUTO 11010G21KT 10SM FEW021 29/23 A3001 RMK AO2 SLP162 T02890228 Follow KMTH on AV Mobile MARATHON AIRPORT 135.525 305-743-8373
KMKYFAA ID MKY, AWOS-3, KMKY 302215Z AUTO 11014KT 10SM SCT050 SCT055 31/19 A3001 RMK AO1 Follow KMKY on AV Mobile MARCO ISLAND 120.075 239-394-8187
KMAIFAA ID MAI, ASOS, KMAI 302153Z AUTO 18010G22KT 10SM CLR 30/20 A3000 RMK AO2 SLP156 T03000200 Follow KMAI on AV Mobile MARIANNA MUNICIPAL AIRPORT 133.525 850-482-6082
KHRTFAA ID HRT, KHRT 302209Z 14013KT 10SM BKN008 OVC013 25/21 A2997 RMK AO2A SLP150 Follow KHRT on AV Mobile Hurlburt Field
KNRBFAA ID NRB, KNRB 302152Z AUTO 14017G24KT 10SM CLR 24/22 A3009 RMK AO2 PK WND 13027/2121 SLP189 T02440222 $ Follow KNRB on AV Mobile MAYPORT NAVAL AIR FACILITY
KMLBFAA ID MLB, ASOS, KMLB 302200Z 11013G22KT 10SM SCT021 BKN028 28/22 A3009 Follow KMLB on AV Mobile MELBOURNE INTERNATIONAL 321-723-7403
KCOIFAA ID COI, AWOS-3 Merritt Island, Merritt Island Airport 119.025 321-986-8864
KTNTFAA ID TNT, AWOS-3 MIAMI 119.075 (239) 695-9198
KX87ICAO ID KX87 Miami Beach Coast Guard Station
KAMXICAO ID KAMX Miami Nexrad
KTMBFAA ID TMB, ASOS, KTMB 302215Z 10014G21KT 10SM SCT023 BKN029 28/21 A3005 Follow KTMB on AV Mobile KENDALL-TAMIAMI EXEC AIRPORT 305-235-1332
KMIAFAA ID MIA, ASOS, KMIA 302153Z 09013KT 10SM BKN025 BKN250 28/21 A3006 Follow KMIA on AV Mobile MIAMI INTERNATIONAL AIRPORT 305-870-0235
KOPFFAA ID OPF, KOPF 302153Z 11014KT 10SM SCT027 BKN042 27/21 A3007 Follow KOPF on AV Mobile MIAMI OPA LOCKA AIRPORT
KNFJFAA ID NFJ CHOCTAW, WHITING FIELD, NOLF
KNSEFAA ID NSE, KNSE 302156Z AUTO 16014G24KT 10SM -RA OVC017 26/22 A2997 RMK AO2 PK WND 15030/2128 SLP135 P0000 T02560222 $ Follow KNSE on AV Mobile MILTON WHITING FIELD (NORTH)
KNDZFAA ID NDZ, KNDZ 302156Z 16014G20KT 10SM OVC018 27/23 A2997 RMK AO2 SLP135 T2 SET T02720233 $ Follow KNDZ on AV Mobile MILTON WHITING FIELD (SOUTH)
KAPFFAA ID APF, ASOS, KAPF 302153Z 11011KT 10SM CLR 31/18 A3000 Follow KAPF on AV Mobile NAPLES MUNICIPAL AIRPORT 239-643-9886
KRRFICAO ID KRRF New Port Richey, Tampa Bay Executive Airport
KEVBFAA ID EVB, AWOS-3, KEVB 302147Z 14018G24KT 10SM FEW020 28/21 A3010 Follow KEVB on AV Mobile New Smyrna Beach, New Smyrna Beach Municipal Airport 124.625 386-409-4705
KOCFFAA ID OCF, AWOS-3, KOCF 302150Z 17006KT 10SM SCT085 32/18 A3003 Follow KOCF on AV Mobile Ocala, Ocala International Airport-Jim Taylor Field 128.125 352-237-8525
KOBEFAA ID OBE, AWOS-3, KOBE 302215Z AUTO 11008KT 075V135 10SM SCT039 SCT047 30/19 A3006 RMK AO2 Follow KOBE on AV Mobile Okeechobee County Airport 118.675 863-467-1148
KORLFAA ID ORL, ASOS, KORL 302153Z 11013KT 10SM SCT036 BKN046 OVC055 29/20 A3007 RMK AO2 SLP183 T02940200 Follow KORL on AV Mobile ORLANDO EXECUTIVE AIRPORT 407-658-6753
KMCOFAA ID MCO, ASOS, KMCO 302153Z 11015KT 10SM SCT038 SCT046 SCT150 BKN250 29/21 A3006 Follow KMCO on AV Mobile ORLANDO INTERNATIONAL AIRPORT 407-855-5235
KSFBFAA ID SFB, ASOS, KSFB 302153Z 12014KT 10SM FEW036 FEW043 BKN050 29/20 A3007 Follow KSFB on AV Mobile ORLANDO SANFORD AIRPORT 407-321-9384
KISMFAA ID ISM, AWOS-3, KISM 302156Z 12013G19KT 10SM SCT039 31/21 A3007 RMK AO2 SLP182 T03060206 Follow KISM on AV Mobile Orlando, Kissimmee Municipal Airport 128.775 407-847-0533
KOMNFAA ID OMN, AWOS-3, KOMN 302050Z 13014G22KT 7SM SCT022 27/22 A3009 Follow KOMN on AV Mobile Ormond Beach, Ormond Beach Municipal Airport 118.475 386-615-7084
K28JFAA ID 28J, AWOS-3, K28J 302155Z AUTO 12014KT 10SM FEW041 SCT060 BKN070 30/22 A3006 RMK AO2 Follow K28J on AV Mobile PALATKA 119.92 386-312-2212
KFINFAA ID FIN, AWOS-3, KFIN 301950Z 13018G30KT 10SM SCT025 28/21 A3009 Follow KFIN on AV Mobile PALM COAST 128.325 386-437-7334
KECPFAA ID ECP, ASOS, KECP 302153Z 14017G23KT 10SM OVC023 27/22 A3002 Follow KECP on AV Mobile PANAMA CITY 119.975 850-235-7857
KPFNICAO ID KPFN, KPFN 030253Z VRB03KT 10SM FEW023 25/23 A2989 Follow KPFN on AV Mobile PANAMA CITY-BAY CTY INTERNATIONAL
KPAMFAA ID PAM, KPAM 302216Z AUTO 14017G24KT 10SM BKN022 BKN028 26/22 A3001 RMK AO2 CIG 022V028 PRESFR SLP165 $ Follow KPAM on AV Mobile Tyndall Air Force Base
KPNSFAA ID PNS, ASOS, KPNS 302153Z 15015G21KT 8SM BKN009 OVC017 26/23 A2997 Follow KPNS on AV Mobile PENSACOLA REGIONAL AIRPORT 850-436-4799
KNPAFAA ID NPA, KNPA 302156Z 14013KT 7SM BKN009 OVC012 26/23 A2996 RMK AO2 SLP147 T2 SET T02560228 $ Follow KNPA on AV Mobile Pensacola, Naval Air Station
K40JFAA ID 40J, AWOS-3PT, K40J 302215Z AUTO 19007KT 10SM CLR 30/19 A3004 RMK AO2 T03010188 Follow K40J on AV Mobile PERRY-FOLEY AIRPORT 118.375 850-838-3526
FA54FAA ID FA54, Belfort CORAL CREEK
KPCMFAA ID PCM, AWOS-3, KPCM 302215Z AUTO 15009KT 10SM SCT070 34/17 A3004 RMK AO2 Follow KPCM on AV Mobile Plant City, Plant City Municipal Airport 120.025 813-764-8259
KPMPFAA ID PMP, ASOS, KPMP 302153Z 09015G22KT 9SM SCT022 SCT033 28/22 A3007 RMK AO2 SLP184 T02830222 Follow KPMP on AV Mobile POMPANO BEACH AIRPARK 954-783-3720
K1J3ICAO ID K1J3 Ponce De Leon Inlet
KPGDFAA ID PGD, ASOS, KPGD 302153Z 14010G18KT 10SM SCT060 33/18 A3001 RMK AO2 SLP163 T03330178 Follow KPGD on AV Mobile PUNTA GORDA CHARLOTTE COUNTY 135.675 941-639-0076
K2J9FAA ID 2J9, AWOS-3, K2J9 041515Z AUTO CLR 09/00 A3037 RMK AO1 Follow K2J9 on AV Mobile QUINCY 118.975 (850) 627-6264
K1J5ICAO ID K1J5 Santa Rosa Coast Guard Station
KSRQFAA ID SRQ, ASOS, KSRQ 302153Z AUTO 21013KT 10SM CLR 29/21 A3000 Follow KSRQ on AV Mobile SARASOTA/BRADENTON INTERNATIONAL . 124.375 941-359-0117
KSEFFAA ID SEF, AWOS-3, KSEF 302155Z AUTO 15016G21KT 10SM CLR 31/19 A3005 RMK AO2 T03110190 Follow KSEF on AV Mobile SEBRING 119.475 863-655-6424
KSGJFAA ID SGJ, AWOS-3, KSGJ 302215Z 15015G25KT 10SM SCT016 26/22 A3010 RMK AO2 PK WND 14027/2201 Follow KSGJ on AV Mobile St. Augustine, St. Augustine Airport 904-824-7084
KPIEFAA ID PIE, ASOS, KPIE 302153Z 24014KT 10SM SCT070 30/20 A3001 Follow KPIE on AV Mobile ST PETERSBURG/CLEARWATER 727-531-3456
KSPGFAA ID SPG, ASOS, KSPG 302153Z 24011G16KT 10SM FEW070 28/21 A3000 RMK AO2 SLP157 T02830211 Follow KSPG on AV Mobile ST PETERSBURG WHITTED AIRPORT 118.875 727-821-4334
KSUAFAA ID SUA, AWOS-3, KSUA 302147Z 14014G26KT 7SM SCT023 BKN033 28/23 A3010 Follow KSUA on AV Mobile Stuart, Witham Field Airport 772-692-7399
KTLHFAA ID TLH, ASOS, KTLH 302153Z 16010KT 10SM FEW040 BKN250 28/21 A3005 Follow KTLH on AV Mobile TALLAHASSEE REGIONAL AIRPORT 850-576-3665
KTBWICAO ID KTBW Tampa Bay Area
KMCFFAA ID MCF, KMCF 302158Z AUTO 21013KT 10SM BKN075 31/23 A3001 RMK AO2 SLP165 T03120233 $ Follow KMCF on AV Mobile Macdill Air Force Base, Fl.
KTPAFAA ID TPA, ASOS, KTPA 302153Z 14009KT 10SM SCT065 33/17 A3001 Follow KTPA on AV Mobile TAMPA INTERNATIONAL AIRPORT 813-873-7228
KTPFFAA ID TPF, AWOS-3, KTPF 302215Z AUTO 19008KT 10SM SCT085 SCT110 34/20 A3002 RMK AO2 Follow KTPF on AV Mobile Tampa, Peter O Knight Airport 118.925 813-251-6824
KVDFFAA ID VDF, AWOS-3, KVDF 302215Z AUTO 12005KT 10SM SCT085 34/16 A3002 RMK AO2 Follow KVDF on AV Mobile Tampa, Vandenberg Airport 121.125 813-630-0924
KVLGICAO ID KVLG The Villages
KVVGICAO ID KVVG, KVVG 302150Z AUTO 10SM 32/21 A2994 RMK A01 Follow KVVG on AV Mobile The Villages
KX68ICAO ID KX68 Titusville, NASA Shuttle Landing Facility
KTIXFAA ID TIX, KTIX 302147Z 14010KT 7SM BKN024 29/22 A3010 Follow KTIX on AV Mobile Titusville
KX21FAA ID X21, AWOS-3 Titusville, Arthur Dunn Air Park 119.725 321-385-0383
KTTSFAA ID TTS, KTTS 302203Z AUTO 15013G18KT 10SM SCT025 27/21 A3008 RMK AO2 SLP190 $ Follow KTTS on AV Mobile Titusville, NASA Shuttle Landing Facility
KVPSFAA ID VPS, KVPS 302155Z 14014KT 10SM BKN010 OVC080 25/22 A3000 RMK AO2A SLP165 T02500224 $ Follow KVPS on AV Mobile Valparaiso / Eglin Air Force Base
KVNCFAA ID VNC, AWOS-3, KVNC 302215Z AUTO 20011KT 10SM CLR A3002 RMK AO2 Follow KVNC on AV Mobile VENICE 119.275
KX90ICAO ID KX90 Venice Long Range Navigation
KVRBFAA ID VRB, ASOS, KVRB 302153Z 13015G22KT 10SM CLR 28/21 A3009 Follow KVRB on AV Mobile VERO BEACH MUNICIPAL AIRPORT 772-978-9535
F45FAA ID F45, AWOS-3, KGAF 302230Z AUTO 08006G13KT 10SM CLR 17/M04 A2994 RMK AO2 Follow  on AV Mobile WEST PALM BEACH 119.975 561-630-6932
KLNAFAA ID LNA, AWOS-3, KLNA 271441Z AUTO 13013KT 10SM SCT018 BKN026 29/23 A2999 RMK AO2 TSNO Follow KLNA on AV Mobile WEST PALM BEACH 119.925 561-964-0308
KPBIFAA ID PBI, ASOS, KPBI 302153Z 11019KT 10SM BKN019 BKN220 27/21 A3009 Follow KPBI on AV Mobile PALM BEACH INTERNATIONAL 123.75 561-683-2548
FD38FAA ID FD38, Belfort WELLINGTON AERO CLUB
KX60FAA ID X60, AWOS-3, KX60 302215Z AUTO 10006G13KT 10SM CLR 34/17 A3002 RMK A01 Follow KX60 on AV Mobile WILLISTON 118.425 352-528-9949
KGIFFAA ID GIF, ASOS, KGIF 302153Z AUTO 10016KT 10SM FEW080 31/19 A3005 RMK AO2 SLP174 T03060194 Follow KGIF on AV Mobile WINTER HAVENS GILBERT AIRPORT 133.675 863-956-2097
KZPHFAA ID ZPH, ASOS, KZPH 302215Z AUTO 09013G17KT 10SM SCT060 SCT075 32/20 A3003 RMK AO2 T03160203 Follow KZPH on AV Mobile ZEPHYRHILLS 118.975 813-780-0031

Click on the AV Mobile icon AV Mobile icon by any station to follow that AWOS feed on AirportView.net Mobile.

Garmin Target Trend Avemco Insurance Company